sensor_id;sensor_type;location;lat;lon;timestamp;P1;durP1;ratioP1;P2;durP2;ratioP2
60312;SDS011;46158;52.850;6.970;2022-12-07T00:01:06;6.00;;;2.33;;
60312;SDS011;46158;52.850;6.970;2022-12-07T00:03:49;4.93;;;2.35;;
60312;SDS011;46158;52.850;6.970;2022-12-07T00:06:34;3.60;;;2.30;;
60312;SDS011;46158;52.850;6.970;2022-12-07T00:09:04;4.22;;;2.17;;
60312;SDS011;46158;52.850;6.970;2022-12-07T00:11:35;4.45;;;2.08;;
60312;SDS011;46158;52.850;6.970;2022-12-07T00:14:02;6.28;;;2.30;;
60312;SDS011;46158;52.850;6.970;2022-12-07T00:16:36;3.58;;;2.22;;
60312;SDS011;46158;52.850;6.970;2022-12-07T00:19:02;6.93;;;2.35;;
60312;SDS011;46158;52.850;6.970;2022-12-07T00:21:32;4.68;;;2.25;;
60312;SDS011;46158;52.850;6.970;2022-12-07T00:24:01;5.53;;;2.15;;
60312;SDS011;46158;52.850;6.970;2022-12-07T00:26:30;4.75;;;2.20;;
60312;SDS011;46158;52.850;6.970;2022-12-07T00:28:58;5.60;;;2.13;;
60312;SDS011;46158;52.850;6.970;2022-12-07T00:31:42;4.45;;;2.03;;
60312;SDS011;46158;52.850;6.970;2022-12-07T00:34:27;7.68;;;2.40;;
60312;SDS011;46158;52.850;6.970;2022-12-07T00:36:53;6.68;;;2.20;;
60312;SDS011;46158;52.850;6.970;2022-12-07T00:39:18;4.78;;;2.05;;
60312;SDS011;46158;52.850;6.970;2022-12-07T00:41:46;3.53;;;2.25;;
60312;SDS011;46158;52.850;6.970;2022-12-07T00:44:12;3.03;;;1.90;;
60312;SDS011;46158;52.850;6.970;2022-12-07T00:46:39;3.13;;;2.00;;
60312;SDS011;46158;52.850;6.970;2022-12-07T00:49:12;4.28;;;1.92;;
60312;SDS011;46158;52.850;6.970;2022-12-07T00:51:41;3.53;;;1.85;;
60312;SDS011;46158;52.850;6.970;2022-12-07T00:54:07;5.57;;;2.00;;
60312;SDS011;46158;52.850;6.970;2022-12-07T00:56:38;5.47;;;1.90;;
60312;SDS011;46158;52.850;6.970;2022-12-07T00:59:04;3.30;;;1.73;;
60312;SDS011;46158;52.850;6.970;2022-12-07T01:01:31;5.63;;;2.00;;
60312;SDS011;46158;52.850;6.970;2022-12-07T01:04:01;3.78;;;1.70;;
60312;SDS011;46158;52.850;6.970;2022-12-07T01:06:28;4.45;;;1.92;;
60312;SDS011;46158;52.850;6.970;2022-12-07T01:08:57;4.38;;;1.80;;
60312;SDS011;46158;52.850;6.970;2022-12-07T01:11:31;4.65;;;2.00;;
60312;SDS011;46158;52.850;6.970;2022-12-07T01:13:58;5.10;;;1.80;;
60312;SDS011;46158;52.850;6.970;2022-12-07T01:16:29;4.25;;;2.13;;
60312;SDS011;46158;52.850;6.970;2022-12-07T01:18:56;4.18;;;1.63;;
60312;SDS011;46158;52.850;6.970;2022-12-07T01:21:24;3.22;;;1.90;;
60312;SDS011;46158;52.850;6.970;2022-12-07T01:24:08;2.67;;;1.80;;
60312;SDS011;46158;52.850;6.970;2022-12-07T01:26:36;4.50;;;1.75;;
60312;SDS011;46158;52.850;6.970;2022-12-07T01:29:02;7.32;;;1.90;;
60312;SDS011;46158;52.850;6.970;2022-12-07T01:31:28;6.03;;;1.77;;
60312;SDS011;46158;52.850;6.970;2022-12-07T01:33:56;7.13;;;2.00;;
60312;SDS011;46158;52.850;6.970;2022-12-07T01:36:28;3.97;;;1.65;;
60312;SDS011;46158;52.850;6.970;2022-12-07T01:38:57;6.22;;;2.00;;
60312;SDS011;46158;52.850;6.970;2022-12-07T01:41:26;6.00;;;1.90;;
60312;SDS011;46158;52.850;6.970;2022-12-07T01:46:50;3.83;;;1.77;;
60312;SDS011;46158;52.850;6.970;2022-12-07T01:49:36;2.33;;;1.48;;
60312;SDS011;46158;52.850;6.970;2022-12-07T01:52:23;4.57;;;2.08;;
60312;SDS011;46158;52.850;6.970;2022-12-07T01:55:00;3.60;;;1.60;;
60312;SDS011;46158;52.850;6.970;2022-12-07T01:57:31;4.53;;;1.83;;
60312;SDS011;46158;52.850;6.970;2022-12-07T01:59:59;6.53;;;1.73;;
60312;SDS011;46158;52.850;6.970;2022-12-07T02:02:33;4.38;;;1.80;;
60312;SDS011;46158;52.850;6.970;2022-12-07T02:05:04;4.40;;;1.73;;
60312;SDS011;46158;52.850;6.970;2022-12-07T02:07:35;3.28;;;1.65;;
60312;SDS011;46158;52.850;6.970;2022-12-07T02:10:16;3.75;;;1.88;;
60312;SDS011;46158;52.850;6.970;2022-12-07T02:12:46;2.53;;;1.65;;
60312;SDS011;46158;52.850;6.970;2022-12-07T02:21:42;3.97;;;1.42;;
60312;SDS011;46158;52.850;6.970;2022-12-07T02:30:06;4.88;;;1.75;;
60312;SDS011;46158;52.850;6.970;2022-12-07T02:35:09;5.28;;;1.88;;
60312;SDS011;46158;52.850;6.970;2022-12-07T02:37:58;3.90;;;1.67;;
60312;SDS011;46158;52.850;6.970;2022-12-07T02:43:24;6.07;;;1.80;;
60312;SDS011;46158;52.850;6.970;2022-12-07T02:45:53;3.72;;;1.70;;
60312;SDS011;46158;52.850;6.970;2022-12-07T02:48:27;3.03;;;1.50;;
60312;SDS011;46158;52.850;6.970;2022-12-07T02:50:54;2.10;;;1.30;;
60312;SDS011;46158;52.850;6.970;2022-12-07T02:53:33;6.10;;;1.92;;
60312;SDS011;46158;52.850;6.970;2022-12-07T03:10:03;5.43;;;1.65;;
60312;SDS011;46158;52.850;6.970;2022-12-07T03:12:48;4.75;;;1.83;;
60312;SDS011;46158;52.850;6.970;2022-12-07T03:18:40;5.53;;;1.70;;
60312;SDS011;46158;52.850;6.970;2022-12-07T03:21:17;2.53;;;1.35;;
60312;SDS011;46158;52.850;6.970;2022-12-07T03:23:54;5.80;;;1.65;;
60312;SDS011;46158;52.850;6.970;2022-12-07T03:26:32;3.78;;;1.67;;
60312;SDS011;46158;52.850;6.970;2022-12-07T03:29:02;5.30;;;1.30;;
60312;SDS011;46158;52.850;6.970;2022-12-07T03:31:36;4.22;;;1.40;;
60312;SDS011;46158;52.850;6.970;2022-12-07T03:37:00;4.30;;;1.70;;
60312;SDS011;46158;52.850;6.970;2022-12-07T03:39:35;4.20;;;1.40;;
60312;SDS011;46158;52.850;6.970;2022-12-07T03:42:08;2.55;;;1.58;;
60312;SDS011;46158;52.850;6.970;2022-12-07T03:44:35;4.05;;;1.58;;
60312;SDS011;46158;52.850;6.970;2022-12-07T03:47:11;5.18;;;1.60;;
60312;SDS011;46158;52.850;6.970;2022-12-07T03:49:57;4.35;;;1.60;;
60312;SDS011;46158;52.850;6.970;2022-12-07T03:55:42;7.68;;;1.65;;
60312;SDS011;46158;52.850;6.970;2022-12-07T03:58:25;7.03;;;1.60;;
60312;SDS011;46158;52.850;6.970;2022-12-07T04:01:10;3.80;;;1.70;;
60312;SDS011;46158;52.850;6.970;2022-12-07T04:03:37;3.85;;;1.35;;
60312;SDS011;46158;52.850;6.970;2022-12-07T04:06:04;2.40;;;1.50;;
60312;SDS011;46158;52.850;6.970;2022-12-07T04:08:38;2.80;;;1.65;;
60312;SDS011;46158;52.850;6.970;2022-12-07T04:11:04;7.03;;;1.70;;
60312;SDS011;46158;52.850;6.970;2022-12-07T04:13:36;2.58;;;1.27;;
60312;SDS011;46158;52.850;6.970;2022-12-07T04:16:23;3.67;;;1.60;;
60312;SDS011;46158;52.850;6.970;2022-12-07T04:18:53;2.58;;;1.35;;
60312;SDS011;46158;52.850;6.970;2022-12-07T04:21:22;5.07;;;1.55;;
60312;SDS011;46158;52.850;6.970;2022-12-07T04:23:47;4.60;;;1.48;;
60312;SDS011;46158;52.850;6.970;2022-12-07T04:26:13;2.67;;;1.50;;
60312;SDS011;46158;52.850;6.970;2022-12-07T04:28:42;3.35;;;1.70;;
60312;SDS011;46158;52.850;6.970;2022-12-07T04:31:22;3.38;;;1.35;;
60312;SDS011;46158;52.850;6.970;2022-12-07T04:33:48;3.45;;;1.42;;
60312;SDS011;46158;52.850;6.970;2022-12-07T04:36:14;2.83;;;1.48;;
60312;SDS011;46158;52.850;6.970;2022-12-07T04:38:40;4.13;;;1.30;;
60312;SDS011;46158;52.850;6.970;2022-12-07T04:41:06;2.10;;;1.35;;
60312;SDS011;46158;52.850;6.970;2022-12-07T04:43:36;5.60;;;1.45;;
60312;SDS011;46158;52.850;6.970;2022-12-07T04:46:05;2.30;;;1.30;;
60312;SDS011;46158;52.850;6.970;2022-12-07T04:48:32;3.40;;;1.40;;
60312;SDS011;46158;52.850;6.970;2022-12-07T04:50:57;3.08;;;1.33;;
60312;SDS011;46158;52.850;6.970;2022-12-07T04:53:23;3.50;;;1.42;;
60312;SDS011;46158;52.850;6.970;2022-12-07T04:55:50;3.22;;;1.40;;
60312;SDS011;46158;52.850;6.970;2022-12-07T04:58:16;1.83;;;1.20;;
60312;SDS011;46158;52.850;6.970;2022-12-07T05:00:42;1.48;;;1.38;;
60312;SDS011;46158;52.850;6.970;2022-12-07T05:03:07;3.97;;;1.30;;
60312;SDS011;46158;52.850;6.970;2022-12-07T05:05:39;4.78;;;1.33;;
60312;SDS011;46158;52.850;6.970;2022-12-07T05:08:06;2.13;;;1.42;;
60312;SDS011;46158;52.850;6.970;2022-12-07T05:10:33;3.38;;;1.50;;
60312;SDS011;46158;52.850;6.970;2022-12-07T05:12:59;3.03;;;1.40;;
60312;SDS011;46158;52.850;6.970;2022-12-07T05:15:25;3.70;;;1.38;;
60312;SDS011;46158;52.850;6.970;2022-12-07T05:18:03;5.35;;;1.30;;
60312;SDS011;46158;52.850;6.970;2022-12-07T05:20:41;1.65;;;1.10;;
60312;SDS011;46158;52.850;6.970;2022-12-07T05:23:13;2.22;;;1.20;;
60312;SDS011;46158;52.850;6.970;2022-12-07T05:25:48;3.77;;;1.60;;
60312;SDS011;46158;52.850;6.970;2022-12-07T05:28:14;2.58;;;1.17;;
60312;SDS011;46158;52.850;6.970;2022-12-07T05:30:41;4.78;;;1.40;;
60312;SDS011;46158;52.850;6.970;2022-12-07T05:33:07;4.32;;;1.17;;
60312;SDS011;46158;52.850;6.970;2022-12-07T05:35:36;3.78;;;1.33;;
60312;SDS011;46158;52.850;6.970;2022-12-07T05:38:06;2.15;;;1.40;;
60312;SDS011;46158;52.850;6.970;2022-12-07T05:40:32;4.20;;;1.35;;
60312;SDS011;46158;52.850;6.970;2022-12-07T05:42:57;6.13;;;1.17;;
60312;SDS011;46158;52.850;6.970;2022-12-07T05:45:23;2.35;;;1.48;;
60312;SDS011;46158;52.850;6.970;2022-12-07T05:47:49;4.25;;;1.52;;
60312;SDS011;46158;52.850;6.970;2022-12-07T05:50:24;3.30;;;1.40;;
60312;SDS011;46158;52.850;6.970;2022-12-07T05:52:50;3.17;;;1.40;;
60312;SDS011;46158;52.850;6.970;2022-12-07T05:55:16;9.95;;;1.45;;
60312;SDS011;46158;52.850;6.970;2022-12-07T05:57:42;3.38;;;1.20;;
60312;SDS011;46158;52.850;6.970;2022-12-07T06:00:32;3.42;;;1.20;;
60312;SDS011;46158;52.850;6.970;2022-12-07T06:03:04;4.70;;;1.33;;
60312;SDS011;46158;52.850;6.970;2022-12-07T06:05:31;2.70;;;1.25;;
60312;SDS011;46158;52.850;6.970;2022-12-07T06:08:03;5.95;;;1.40;;
60312;SDS011;46158;52.850;6.970;2022-12-07T06:10:29;5.05;;;1.42;;
60312;SDS011;46158;52.850;6.970;2022-12-07T06:12:55;7.13;;;1.88;;
60312;SDS011;46158;52.850;6.970;2022-12-07T06:18:05;5.93;;;1.35;;
60312;SDS011;46158;52.850;6.970;2022-12-07T06:20:31;4.15;;;1.60;;
60312;SDS011;46158;52.850;6.970;2022-12-07T06:23:00;4.25;;;1.77;;
60312;SDS011;46158;52.850;6.970;2022-12-07T06:25:26;3.00;;;1.23;;
60312;SDS011;46158;52.850;6.970;2022-12-07T06:27:55;3.47;;;1.67;;
60312;SDS011;46158;52.850;6.970;2022-12-07T06:33:22;2.10;;;0.93;;
60312;SDS011;46158;52.850;6.970;2022-12-07T06:35:48;3.22;;;1.38;;
60312;SDS011;46158;52.850;6.970;2022-12-07T06:38:15;3.25;;;1.30;;
60312;SDS011;46158;52.850;6.970;2022-12-07T06:40:50;3.70;;;1.58;;
60312;SDS011;46158;52.850;6.970;2022-12-07T06:43:23;5.00;;;1.20;;
60312;SDS011;46158;52.850;6.970;2022-12-07T06:45:52;5.18;;;1.50;;
60312;SDS011;46158;52.850;6.970;2022-12-07T06:48:18;2.88;;;1.08;;
60312;SDS011;46158;52.850;6.970;2022-12-07T06:50:45;4.75;;;1.33;;
60312;SDS011;46158;52.850;6.970;2022-12-07T06:53:12;4.18;;;1.38;;
60312;SDS011;46158;52.850;6.970;2022-12-07T06:55:38;4.43;;;1.52;;
60312;SDS011;46158;52.850;6.970;2022-12-07T06:58:04;3.95;;;1.60;;
60312;SDS011;46158;52.850;6.970;2022-12-07T07:00:29;3.60;;;1.52;;
60312;SDS011;46158;52.850;6.970;2022-12-07T07:02:55;2.28;;;1.25;;
60312;SDS011;46158;52.850;6.970;2022-12-07T07:05:21;6.40;;;1.42;;
60312;SDS011;46158;52.850;6.970;2022-12-07T07:07:48;5.75;;;1.45;;
60312;SDS011;46158;52.850;6.970;2022-12-07T07:10:14;3.92;;;1.55;;
60312;SDS011;46158;52.850;6.970;2022-12-07T07:12:40;2.53;;;1.60;;
60312;SDS011;46158;52.850;6.970;2022-12-07T07:15:06;3.55;;;1.33;;
60312;SDS011;46158;52.850;6.970;2022-12-07T07:17:32;4.38;;;1.50;;
60312;SDS011;46158;52.850;6.970;2022-12-07T07:19:58;3.17;;;1.35;;
60312;SDS011;46158;52.850;6.970;2022-12-07T07:22:23;7.40;;;1.55;;
60312;SDS011;46158;52.850;6.970;2022-12-07T07:24:49;4.28;;;1.60;;
60312;SDS011;46158;52.850;6.970;2022-12-07T07:27:15;8.60;;;1.73;;
60312;SDS011;46158;52.850;6.970;2022-12-07T07:29:41;7.30;;;1.65;;
60312;SDS011;46158;52.850;6.970;2022-12-07T07:32:07;7.10;;;1.75;;
60312;SDS011;46158;52.850;6.970;2022-12-07T07:34:33;7.57;;;1.88;;
60312;SDS011;46158;52.850;6.970;2022-12-07T07:36:59;4.57;;;1.80;;
60312;SDS011;46158;52.850;6.970;2022-12-07T07:39:27;7.32;;;1.63;;
60312;SDS011;46158;52.850;6.970;2022-12-07T07:41:53;7.93;;;1.55;;
60312;SDS011;46158;52.850;6.970;2022-12-07T07:44:22;6.45;;;2.17;;
60312;SDS011;46158;52.850;6.970;2022-12-07T07:46:51;8.00;;;2.50;;
60312;SDS011;46158;52.850;6.970;2022-12-07T07:49:17;8.73;;;2.20;;
60312;SDS011;46158;52.850;6.970;2022-12-07T07:51:45;8.18;;;2.40;;
60312;SDS011;46158;52.850;6.970;2022-12-07T07:54:11;8.75;;;2.50;;
60312;SDS011;46158;52.850;6.970;2022-12-07T07:56:37;10.45;;;2.47;;
60312;SDS011;46158;52.850;6.970;2022-12-07T07:59:03;9.38;;;2.00;;
60312;SDS011;46158;52.850;6.970;2022-12-07T08:01:31;6.88;;;2.20;;
60312;SDS011;46158;52.850;6.970;2022-12-07T08:03:57;7.30;;;2.00;;
60312;SDS011;46158;52.850;6.970;2022-12-07T08:06:26;8.32;;;2.30;;
60312;SDS011;46158;52.850;6.970;2022-12-07T08:08:52;5.13;;;2.10;;
60312;SDS011;46158;52.850;6.970;2022-12-07T08:11:18;8.48;;;2.22;;
60312;SDS011;46158;52.850;6.970;2022-12-07T08:13:46;4.53;;;1.80;;
60312;SDS011;46158;52.850;6.970;2022-12-07T08:16:13;5.78;;;1.90;;
60312;SDS011;46158;52.850;6.970;2022-12-07T08:18:40;5.05;;;1.95;;
60312;SDS011;46158;52.850;6.970;2022-12-07T08:21:16;10.38;;;2.20;;
60312;SDS011;46158;52.850;6.970;2022-12-07T08:23:42;5.35;;;2.00;;
60312;SDS011;46158;52.850;6.970;2022-12-07T08:26:09;4.97;;;2.00;;
60312;SDS011;46158;52.850;6.970;2022-12-07T08:28:39;6.10;;;2.08;;
60312;SDS011;46158;52.850;6.970;2022-12-07T08:31:07;3.88;;;1.88;;
60312;SDS011;46158;52.850;6.970;2022-12-07T08:33:39;7.88;;;2.17;;
60312;SDS011;46158;52.850;6.970;2022-12-07T08:36:13;8.77;;;2.22;;
60312;SDS011;46158;52.850;6.970;2022-12-07T08:38:45;7.93;;;2.10;;
60312;SDS011;46158;52.850;6.970;2022-12-07T08:41:11;5.68;;;2.20;;
60312;SDS011;46158;52.850;6.970;2022-12-07T08:43:36;5.45;;;2.22;;
60312;SDS011;46158;52.850;6.970;2022-12-07T08:46:13;8.20;;;2.15;;
60312;SDS011;46158;52.850;6.970;2022-12-07T08:48:46;6.68;;;2.50;;
60312;SDS011;46158;52.850;6.970;2022-12-07T08:51:38;6.35;;;2.30;;
60312;SDS011;46158;52.850;6.970;2022-12-07T08:54:06;3.90;;;2.25;;
60312;SDS011;46158;52.850;6.970;2022-12-07T08:56:39;6.15;;;2.30;;
60312;SDS011;46158;52.850;6.970;2022-12-07T08:59:05;4.35;;;1.90;;
60312;SDS011;46158;52.850;6.970;2022-12-07T09:01:32;5.82;;;2.20;;
60312;SDS011;46158;52.850;6.970;2022-12-07T09:03:58;6.07;;;2.03;;
60312;SDS011;46158;52.850;6.970;2022-12-07T09:06:23;12.23;;;2.35;;
60312;SDS011;46158;52.850;6.970;2022-12-07T09:08:53;4.78;;;2.20;;
60312;SDS011;46158;52.850;6.970;2022-12-07T09:11:26;6.18;;;2.10;;
60312;SDS011;46158;52.850;6.970;2022-12-07T09:14:02;3.78;;;2.00;;
60312;SDS011;46158;52.850;6.970;2022-12-07T09:16:37;3.33;;;2.00;;
60312;SDS011;46158;52.850;6.970;2022-12-07T09:19:03;7.53;;;2.30;;
60312;SDS011;46158;52.850;6.970;2022-12-07T09:21:32;9.07;;;2.20;;
60312;SDS011;46158;52.850;6.970;2022-12-07T09:23:58;6.28;;;2.40;;
60312;SDS011;46158;52.850;6.970;2022-12-07T09:26:24;6.97;;;1.92;;
60312;SDS011;46158;52.850;6.970;2022-12-07T09:28:51;5.32;;;1.75;;
60312;SDS011;46158;52.850;6.970;2022-12-07T09:31:16;6.90;;;2.10;;
60312;SDS011;46158;52.850;6.970;2022-12-07T09:33:42;7.90;;;2.20;;
60312;SDS011;46158;52.850;6.970;2022-12-07T09:36:11;5.97;;;2.22;;
60312;SDS011;46158;52.850;6.970;2022-12-07T09:38:40;6.10;;;2.00;;
60312;SDS011;46158;52.850;6.970;2022-12-07T09:41:06;3.53;;;1.95;;
60312;SDS011;46158;52.850;6.970;2022-12-07T09:43:39;7.13;;;1.70;;
60312;SDS011;46158;52.850;6.970;2022-12-07T09:46:05;4.30;;;1.80;;
60312;SDS011;46158;52.850;6.970;2022-12-07T09:48:38;6.07;;;1.92;;
60312;SDS011;46158;52.850;6.970;2022-12-07T09:51:15;4.38;;;1.88;;
60312;SDS011;46158;52.850;6.970;2022-12-07T09:53:46;6.18;;;1.90;;
60312;SDS011;46158;52.850;6.970;2022-12-07T09:56:13;5.35;;;2.00;;
60312;SDS011;46158;52.850;6.970;2022-12-07T09:58:41;3.03;;;1.65;;
60312;SDS011;46158;52.850;6.970;2022-12-07T10:03:34;6.25;;;1.90;;
60312;SDS011;46158;52.850;6.970;2022-12-07T10:06:03;5.13;;;1.80;;
60312;SDS011;46158;52.850;6.970;2022-12-07T10:08:30;6.70;;;1.90;;
60312;SDS011;46158;52.850;6.970;2022-12-07T10:10:56;7.78;;;1.83;;
60312;SDS011;46158;52.850;6.970;2022-12-07T10:16:27;5.22;;;1.90;;
60312;SDS011;46158;52.850;6.970;2022-12-07T10:19:27;4.38;;;1.83;;
60312;SDS011;46158;52.850;6.970;2022-12-07T10:22:04;3.92;;;1.70;;
60312;SDS011;46158;52.850;6.970;2022-12-07T10:24:34;4.13;;;1.70;;
60312;SDS011;46158;52.850;6.970;2022-12-07T10:27:02;6.22;;;2.00;;
60312;SDS011;46158;52.850;6.970;2022-12-07T10:29:33;5.85;;;1.80;;
60312;SDS011;46158;52.850;6.970;2022-12-07T10:34:37;4.18;;;1.70;;
60312;SDS011;46158;52.850;6.970;2022-12-07T10:37:13;5.63;;;1.77;;
60312;SDS011;46158;52.850;6.970;2022-12-07T10:42:27;3.67;;;1.63;;
60312;SDS011;46158;52.850;6.970;2022-12-07T10:50:22;2.92;;;1.33;;
60312;SDS011;46158;52.850;6.970;2022-12-07T10:53:06;4.03;;;1.58;;
60312;SDS011;46158;52.850;6.970;2022-12-07T11:01:25;3.90;;;1.95;;
60312;SDS011;46158;52.850;6.970;2022-12-07T11:09:52;5.22;;;1.80;;
60312;SDS011;46158;52.850;6.970;2022-12-07T11:13:16;5.40;;;1.63;;
60312;SDS011;46158;52.850;6.970;2022-12-07T11:18:09;5.55;;;1.90;;
60312;SDS011;46158;52.850;6.970;2022-12-07T11:37:21;4.90;;;1.52;;
60312;SDS011;46158;52.850;6.970;2022-12-07T11:39:59;6.70;;;1.70;;
60312;SDS011;46158;52.850;6.970;2022-12-07T11:42:49;7.37;;;1.93;;
60312;SDS011;46158;52.850;6.970;2022-12-07T11:45:32;1.30;;;1.20;;
60312;SDS011;46158;52.850;6.970;2022-12-07T11:50:48;6.97;;;1.70;;
60312;SDS011;46158;52.850;6.970;2022-12-07T11:55:54;4.05;;;1.40;;
60312;SDS011;46158;52.850;6.970;2022-12-07T12:06:34;3.40;;;1.45;;
60312;SDS011;46158;52.850;6.970;2022-12-07T12:09:03;9.10;;;1.70;;
60312;SDS011;46158;52.850;6.970;2022-12-07T12:21:49;5.68;;;2.00;;
60312;SDS011;46158;52.850;6.970;2022-12-07T12:24:11;5.38;;;1.90;;
60312;SDS011;46158;52.850;6.970;2022-12-07T12:26:52;6.97;;;2.00;;
60312;SDS011;46158;52.850;6.970;2022-12-07T12:29:31;6.20;;;1.80;;
60312;SDS011;46158;52.850;6.970;2022-12-07T12:32:24;8.18;;;2.05;;
60312;SDS011;46158;52.850;6.970;2022-12-07T12:37:53;4.68;;;1.90;;
60312;SDS011;46158;52.850;6.970;2022-12-07T12:42:46;5.25;;;2.25;;
60312;SDS011;46158;52.850;6.970;2022-12-07T12:45:21;4.45;;;1.75;;
60312;SDS011;46158;52.850;6.970;2022-12-07T12:56:10;5.65;;;1.77;;
60312;SDS011;46158;52.850;6.970;2022-12-07T12:59:17;3.90;;;1.73;;
60312;SDS011;46158;52.850;6.970;2022-12-07T13:01:48;3.38;;;1.70;;
60312;SDS011;46158;52.850;6.970;2022-12-07T13:04:23;4.55;;;1.90;;
60312;SDS011;46158;52.850;6.970;2022-12-07T13:06:54;5.85;;;1.98;;
60312;SDS011;46158;52.850;6.970;2022-12-07T13:09:22;5.05;;;1.60;;
60312;SDS011;46158;52.850;6.970;2022-12-07T13:11:58;4.03;;;1.77;;
60312;SDS011;46158;52.850;6.970;2022-12-07T13:20:05;4.88;;;1.70;;
60312;SDS011;46158;52.850;6.970;2022-12-07T13:31:04;5.75;;;1.90;;
60312;SDS011;46158;52.850;6.970;2022-12-07T13:33:35;4.13;;;1.90;;
60312;SDS011;46158;52.850;6.970;2022-12-07T13:36:01;5.07;;;2.10;;
60312;SDS011;46158;52.850;6.970;2022-12-07T13:38:34;6.15;;;2.03;;
60312;SDS011;46158;52.850;6.970;2022-12-07T13:41:14;8.23;;;2.30;;
60312;SDS011;46158;52.850;6.970;2022-12-07T13:43:46;3.85;;;1.80;;
60312;SDS011;46158;52.850;6.970;2022-12-07T13:46:14;6.40;;;1.77;;
60312;SDS011;46158;52.850;6.970;2022-12-07T13:48:46;5.60;;;1.90;;
60312;SDS011;46158;52.850;6.970;2022-12-07T13:51:16;6.30;;;1.90;;
60312;SDS011;46158;52.850;6.970;2022-12-07T13:53:57;5.75;;;1.98;;
60312;SDS011;46158;52.850;6.970;2022-12-07T13:56:26;5.07;;;2.00;;
60312;SDS011;46158;52.850;6.970;2022-12-07T13:58:58;8.90;;;2.00;;
60312;SDS011;46158;52.850;6.970;2022-12-07T14:01:25;12.68;;;2.83;;
60312;SDS011;46158;52.850;6.970;2022-12-07T14:03:51;26.20;;;5.45;;
60312;SDS011;46158;52.850;6.970;2022-12-07T14:09:06;30.08;;;7.63;;
60312;SDS011;46158;52.850;6.970;2022-12-07T14:11:42;38.38;;;9.68;;
60312;SDS011;46158;52.850;6.970;2022-12-07T14:14:20;36.17;;;9.70;;
60312;SDS011;46158;52.850;6.970;2022-12-07T14:16:58;39.08;;;9.50;;
60312;SDS011;46158;52.850;6.970;2022-12-07T14:19:42;37.03;;;9.95;;
60312;SDS011;46158;52.850;6.970;2022-12-07T14:22:26;34.13;;;8.65;;
60312;SDS011;46158;52.850;6.970;2022-12-07T14:25:14;35.03;;;9.50;;
60312;SDS011;46158;52.850;6.970;2022-12-07T14:27:47;30.37;;;8.13;;
60312;SDS011;46158;52.850;6.970;2022-12-07T14:30:25;28.50;;;8.10;;
60312;SDS011;46158;52.850;6.970;2022-12-07T14:32:59;32.33;;;8.65;;
60312;SDS011;46158;52.850;6.970;2022-12-07T14:35:26;32.70;;;8.32;;
60312;SDS011;46158;52.850;6.970;2022-12-07T14:37:52;31.75;;;7.97;;
60312;SDS011;46158;52.850;6.970;2022-12-07T14:42:46;29.48;;;6.45;;
60312;SDS011;46158;52.850;6.970;2022-12-07T14:45:19;24.60;;;6.45;;
60312;SDS011;46158;52.850;6.970;2022-12-07T14:47:46;23.77;;;5.40;;
60312;SDS011;46158;52.850;6.970;2022-12-07T14:50:13;27.30;;;5.80;;
60312;SDS011;46158;52.850;6.970;2022-12-07T14:52:42;23.63;;;5.13;;
60312;SDS011;46158;52.850;6.970;2022-12-07T14:55:14;22.95;;;5.18;;
60312;SDS011;46158;52.850;6.970;2022-12-07T14:57:59;21.17;;;4.65;;
60312;SDS011;46158;52.850;6.970;2022-12-07T15:00:26;20.92;;;4.50;;
60312;SDS011;46158;52.850;6.970;2022-12-07T15:02:53;21.90;;;4.78;;
60312;SDS011;46158;52.850;6.970;2022-12-07T15:05:20;19.42;;;4.60;;
60312;SDS011;46158;52.850;6.970;2022-12-07T15:07:46;18.83;;;4.43;;
60312;SDS011;46158;52.850;6.970;2022-12-07T15:10:16;18.13;;;3.88;;
60312;SDS011;46158;52.850;6.970;2022-12-07T15:12:44;20.38;;;3.95;;
60312;SDS011;46158;52.850;6.970;2022-12-07T15:15:11;18.73;;;4.00;;
60312;SDS011;46158;52.850;6.970;2022-12-07T15:17:37;14.80;;;3.50;;
60312;SDS011;46158;52.850;6.970;2022-12-07T15:20:03;15.88;;;3.60;;
60312;SDS011;46158;52.850;6.970;2022-12-07T15:22:29;20.27;;;4.40;;
60312;SDS011;46158;52.850;6.970;2022-12-07T15:24:56;15.98;;;3.30;;
60312;SDS011;46158;52.850;6.970;2022-12-07T15:27:22;16.80;;;3.10;;
60312;SDS011;46158;52.850;6.970;2022-12-07T15:29:48;12.00;;;3.20;;
60312;SDS011;46158;52.850;6.970;2022-12-07T15:32:14;13.88;;;2.90;;
60312;SDS011;46158;52.850;6.970;2022-12-07T15:34:39;13.23;;;3.10;;
60312;SDS011;46158;52.850;6.970;2022-12-07T15:37:05;15.68;;;3.03;;
60312;SDS011;46158;52.850;6.970;2022-12-07T15:39:31;15.48;;;3.10;;
60312;SDS011;46158;52.850;6.970;2022-12-07T15:41:57;14.68;;;2.95;;
60312;SDS011;46158;52.850;6.970;2022-12-07T15:44:23;14.18;;;2.75;;
60312;SDS011;46158;52.850;6.970;2022-12-07T15:47:07;13.27;;;2.90;;
60312;SDS011;46158;52.850;6.970;2022-12-07T15:49:33;12.65;;;2.80;;
60312;SDS011;46158;52.850;6.970;2022-12-07T15:52:00;10.90;;;2.65;;
60312;SDS011;46158;52.850;6.970;2022-12-07T15:54:26;13.55;;;3.03;;
60312;SDS011;46158;52.850;6.970;2022-12-07T15:56:53;11.13;;;2.35;;
60312;SDS011;46158;52.850;6.970;2022-12-07T15:59:20;12.52;;;2.83;;
60312;SDS011;46158;52.850;6.970;2022-12-07T16:01:46;8.70;;;2.53;;
60312;SDS011;46158;52.850;6.970;2022-12-07T16:04:11;10.00;;;2.40;;
60312;SDS011;46158;52.850;6.970;2022-12-07T16:06:37;10.48;;;2.40;;
60312;SDS011;46158;52.850;6.970;2022-12-07T16:09:03;12.82;;;2.70;;
60312;SDS011;46158;52.850;6.970;2022-12-07T16:11:29;12.63;;;2.75;;
60312;SDS011;46158;52.850;6.970;2022-12-07T16:13:55;9.50;;;2.47;;
60312;SDS011;46158;52.850;6.970;2022-12-07T16:16:21;5.35;;;1.60;;
60312;SDS011;46158;52.850;6.970;2022-12-07T16:18:47;6.97;;;1.90;;
60312;SDS011;46158;52.850;6.970;2022-12-07T16:21:14;7.95;;;1.90;;
60312;SDS011;46158;52.850;6.970;2022-12-07T16:23:41;8.27;;;2.33;;
60312;SDS011;46158;52.850;6.970;2022-12-07T16:26:08;7.20;;;2.13;;
60312;SDS011;46158;52.850;6.970;2022-12-07T16:28:37;9.48;;;2.63;;
60312;SDS011;46158;52.850;6.970;2022-12-07T16:31:04;9.77;;;2.17;;
60312;SDS011;46158;52.850;6.970;2022-12-07T16:33:32;9.15;;;2.17;;
60312;SDS011;46158;52.850;6.970;2022-12-07T16:35:59;6.85;;;2.03;;
60312;SDS011;46158;52.850;6.970;2022-12-07T16:38:25;9.73;;;2.25;;
60312;SDS011;46158;52.850;6.970;2022-12-07T16:40:52;10.07;;;2.28;;
60312;SDS011;46158;52.850;6.970;2022-12-07T16:43:18;9.30;;;2.20;;
60312;SDS011;46158;52.850;6.970;2022-12-07T16:45:45;9.27;;;2.30;;
60312;SDS011;46158;52.850;6.970;2022-12-07T16:48:12;6.13;;;2.20;;
60312;SDS011;46158;52.850;6.970;2022-12-07T16:50:42;9.25;;;2.65;;
60312;SDS011;46158;52.850;6.970;2022-12-07T16:53:08;7.88;;;2.10;;
60312;SDS011;46158;52.850;6.970;2022-12-07T16:55:36;8.88;;;2.33;;
60312;SDS011;46158;52.850;6.970;2022-12-07T16:58:09;12.75;;;2.83;;
60312;SDS011;46158;52.850;6.970;2022-12-07T17:00:39;15.18;;;3.88;;
60312;SDS011;46158;52.850;6.970;2022-12-07T17:03:06;19.15;;;4.15;;
60312;SDS011;46158;52.850;6.970;2022-12-07T17:05:33;11.55;;;3.63;;
60312;SDS011;46158;52.850;6.970;2022-12-07T17:08:06;16.55;;;4.18;;
60312;SDS011;46158;52.850;6.970;2022-12-07T17:10:37;14.13;;;3.50;;
60312;SDS011;46158;52.850;6.970;2022-12-07T17:13:06;9.93;;;3.30;;
60312;SDS011;46158;52.850;6.970;2022-12-07T17:15:56;15.13;;;3.60;;
60312;SDS011;46158;52.850;6.970;2022-12-07T17:18:23;11.10;;;3.00;;
60312;SDS011;46158;52.850;6.970;2022-12-07T17:20:51;10.38;;;3.10;;
60312;SDS011;46158;52.850;6.970;2022-12-07T17:23:16;10.70;;;3.08;;
60312;SDS011;46158;52.850;6.970;2022-12-07T17:25:43;11.57;;;3.00;;
60312;SDS011;46158;52.850;6.970;2022-12-07T17:28:08;8.07;;;2.65;;
60312;SDS011;46158;52.850;6.970;2022-12-07T17:30:34;10.77;;;3.03;;
60312;SDS011;46158;52.850;6.970;2022-12-07T17:32:59;8.00;;;2.67;;
60312;SDS011;46158;52.850;6.970;2022-12-07T17:35:26;14.63;;;3.20;;
60312;SDS011;46158;52.850;6.970;2022-12-07T17:37:52;10.43;;;3.00;;